| time (UTC) | temp C | wind direction | speed KPH | gust KPH | rain 1hr cm | rain 24hr cm | rain mn cm | humidity % | barometer mb |
| 20260507201616 | 18 | 205 | 3.2 | 3.2 | 0.00 | 0.36 | 0.36 | 30 | 1005.0 |
| 20260507201114 | 18 | 121 | 6.4 | 11.3 | 0.00 | 0.36 | 0.36 | 30 | 1005.4 |
| 20260507200609 | 18 | 337 | 4.8 | 9.7 | 0.00 | 0.36 | 0.36 | 30 | 1005.4 |
| 20260507200105 | 18 | 119 | 3.2 | 6.4 | 0.00 | 0.36 | 0.36 | 29 | 1005.4 |
| 20260507195603 | 18 | 217 | 1.6 | 3.2 | 0.00 | 0.36 | 0.36 | 30 | 1005.0 |
| 20260507195100 | 19 | 110 | 3.2 | 4.8 | 0.00 | 0.36 | 0.36 | 29 | 1005.4 |
| 20260507194556 | 19 | 212 | 12.9 | 17.7 | 0.00 | 0.36 | 0.36 | 30 | 1005.4 |
| 20260507194052 | 18 | 193 | 3.2 | 3.2 | 0.00 | 0.36 | 0.36 | 30 | 1005.7 |
| 20260507193549 | 19 | 246 | 4.8 | 6.4 | 0.00 | 0.36 | 0.36 | 28 | 1005.4 |
| 20260507193046 | 18 | 228 | 4.8 | 6.4 | 0.00 | 0.36 | 0.36 | 27 | 1005.7 |
| 20260507192542 | 18 | 341 | 8.0 | 9.7 | 0.00 | 0.36 | 0.36 | 27 | 1005.4 |
| 20260507192039 | 18 | 265 | 9.7 | 12.9 | 0.00 | 0.36 | 0.36 | 27 | 1005.7 |
| 20260507191535 | 18 | 151 | 1.6 | 3.2 | 0.00 | 0.36 | 0.36 | 27 | 1005.7 |
| 20260507191032 | 18 | 19 | 3.2 | 4.8 | 0.00 | 0.36 | 0.36 | 28 | 1006.1 |
| 20260507190529 | 18 | 317 | 1.6 | 3.2 | 0.00 | 0.36 | 0.36 | 27 | 1005.7 |
| 20260507190028 | 18 | 39 | 4.8 | 9.7 | 0.00 | 0.36 | 0.36 | 26 | 1006.1 |
| 20260507185526 | 18 | 358 | 11.3 | 16.1 | 0.00 | 0.36 | 0.36 | 27 | 1006.1 |
| 20260507185022 | 20 | 290 | 8.0 | 16.1 | 0.00 | 0.36 | 0.36 | 27 | 1006.1 |
| 20260507184520 | 19 | 321 | 4.8 | 6.4 | 0.00 | 0.36 | 0.36 | 26 | 1006.1 |
| 20260507184018 | 18 | 71 | 3.2 | 3.2 | 0.00 | 0.36 | 0.36 | 27 | 1006.1 |
| 20260507183513 | 18 | 58 | 3.2 | 4.8 | 0.00 | 0.36 | 0.36 | 29 | 1006.1 |
| 20260507183011 | 18 | 345 | 6.4 | 9.7 | 0.00 | 0.36 | 0.36 | 30 | 1006.1 |
| 20260507182507 | 18 | 211 | 3.2 | 3.2 | 0.00 | 0.36 | 0.36 | 31 | 1006.1 |
| 20260507182003 | 17 | 233 | 4.8 | 6.4 | 0.00 | 0.36 | 0.36 | 31 | 1006.4 |
| 20260507181500 | 18 | 225 | 6.4 | 12.9 | 0.00 | 0.36 | 0.36 | 30 | 1006.4 |
| 20260507180956 | 18 | 207 | 11.3 | 12.9 | 0.00 | 0.36 | 0.36 | 33 | 1006.4 |
| 20260507180453 | 18 | 354 | 6.4 | 9.7 | 0.00 | 0.36 | 0.36 | 34 | 1006.4 |
| 20260507175949 | 18 | 269 | 3.2 | 4.8 | 0.00 | 0.36 | 0.36 | 34 | 1006.4 |
| 20260507175446 | 19 | 349 | 4.8 | 4.8 | 0.00 | 0.36 | 0.36 | 33 | 1006.4 |
| 20260507174944 | 18 | 143 | 0.0 | 1.6 | 0.00 | 0.36 | 0.36 | 33 | 1006.4 |
| 20260507174440 | 18 | 163 | 3.2 | 4.8 | 0.00 | 0.36 | 0.36 | 35 | 1006.1 |
| 20260507173938 | 18 | 251 | 4.8 | 6.4 | 0.00 | 0.36 | 0.36 | 35 | 1006.1 |
| 20260507173435 | 18 | 208 | 3.2 | 3.2 | 0.00 | 0.36 | 0.36 | 35 | 1006.4 |
| 20260507172932 | 18 | 312 | 6.4 | 6.4 | 0.00 | 0.36 | 0.36 | 35 | 1006.4 |
| 20260507172428 | 17 | 191 | 3.2 | 4.8 | 0.00 | 0.36 | 0.36 | 35 | 1006.4 |
| 20260507171924 | 17 | 126 | 3.2 | 6.4 | 0.00 | 0.36 | 0.36 | 35 | 1006.4 |
| 20260507171421 | 18 | 289 | 0.0 | 3.2 | 0.00 | 0.36 | 0.36 | 38 | 1006.7 |
| 20260507170918 | 17 | 340 | 6.4 | 11.3 | 0.00 | 0.36 | 0.36 | 38 | 1006.4 |
| 20260507170415 | 17 | 310 | 4.8 | 6.4 | 0.00 | 0.36 | 0.36 | 40 | 1006.4 |
| 20260507165911 | 17 | 232 | 8.0 | 11.3 | 0.00 | 0.36 | 0.36 | 40 | 1006.7 |
| 20260507165407 | 17 | 257 | 8.0 | 14.5 | 0.00 | 0.36 | 0.36 | 40 | 1006.7 |
| 20260507164903 | 17 | 314 | 14.5 | 20.9 | 0.00 | 0.36 | 0.36 | 40 | 1006.7 |
| 20260507164400 | 16 | 194 | 1.6 | 3.2 | 0.00 | 0.36 | 0.36 | 44 | 1006.7 |
| 20260507163857 | 16 | 276 | 6.4 | 9.7 | 0.00 | 0.36 | 0.36 | 47 | 1007.1 |
| 20260507163354 | 16 | 250 | 9.7 | 14.5 | 0.00 | 0.36 | 0.36 | 47 | 1007.1 |
| 20260507162851 | 17 | 340 | 3.2 | 4.8 | 0.00 | 0.36 | 0.36 | 44 | 1006.7 |
| 20260507162346 | 17 | 207 | 0.0 | 1.6 | 0.00 | 0.36 | 0.36 | 49 | 1006.7 |
| 20260507161844 | 16 | 260 | 6.4 | 6.4 | 0.00 | 0.36 | 0.36 | 49 | 1007.1 |
| 20260507161340 | 16 | 78 | 4.8 | 6.4 | 0.00 | 0.36 | 0.36 | 51 | 1007.1 |
| 20260507160837 | 16 | 19 | 3.2 | 4.8 | 0.00 | 0.36 | 0.36 | 52 | 1007.1 |
| 20260507160332 | 16 | 262 | 3.2 | 4.8 | 0.00 | 0.36 | 0.36 | 51 | 1007.1 |
| 20260507155829 | 16 | 226 | 3.2 | 4.8 | 0.00 | 0.36 | 0.36 | 51 | 1007.4 |
| 20260507155325 | 16 | 48 | 1.6 | 3.2 | 0.00 | 0.36 | 0.36 | 51 | 1007.1 |
| 20260507154822 | 15 | 293 | 9.7 | 16.1 | 0.00 | 0.36 | 0.36 | 53 | 1007.1 |
| 20260507154319 | 15 | 180 | 3.2 | 4.8 | 0.00 | 0.36 | 0.36 | 55 | 1007.8 |
| 20260507153816 | 15 | 149 | 1.6 | 3.2 | 0.00 | 0.36 | 0.36 | 54 | 1007.4 |
| 20260507153312 | 16 | 150 | 1.6 | 3.2 | 0.00 | 0.36 | 0.36 | 53 | 1007.4 |
| 20260507152809 | 16 | 119 | 4.8 | 6.4 | 0.00 | 0.36 | 0.36 | 53 | 1007.4 |
| 20260507152306 | 15 | 128 | 1.6 | 3.2 | 0.00 | 0.36 | 0.36 | 55 | 1007.8 |
| 20260507151801 | 15 | 237 | 4.8 | 6.4 | 0.00 | 0.36 | 0.36 | 56 | 1007.8 |
| 20260507151257 | 16 | 145 | 1.6 | 3.2 | 0.00 | 0.36 | 0.36 | 55 | 1007.4 |
| 20260507150754 | 16 | 128 | 1.6 | 3.2 | 0.00 | 0.36 | 0.36 | 53 | 1007.8 |
| 20260507150251 | 15 | 282 | 3.2 | 3.2 | 0.00 | 0.36 | 0.36 | 56 | 1007.8 |
| 20260507145747 | 16 | 236 | 6.4 | 9.7 | 0.00 | 0.36 | 0.36 | 55 | 1007.8 |
| 20260507145244 | 16 | 104 | 1.6 | 3.2 | 0.00 | 0.36 | 0.36 | 54 | 1007.8 |
| 20260507144741 | 16 | 111 | 1.6 | 1.6 | 0.00 | 0.36 | 0.36 | 53 | 1008.1 |
| 20260507144239 | 15 | 322 | 6.4 | 9.7 | 0.00 | 0.36 | 0.36 | 54 | 1007.8 |
| 20260507143735 | 15 | 330 | 1.6 | 3.2 | 0.00 | 0.36 | 0.36 | 55 | 1008.4 |
| 20260507143232 | 15 | 119 | 0.0 | 0.0 | 0.00 | 0.36 | 0.36 | 57 | 1008.4 |
| 20260507142728 | 15 | 336 | 9.7 | 12.9 | 0.00 | 0.36 | 0.36 | 53 | 1008.1 |
| 20260507142225 | 15 | 114 | 3.2 | 4.8 | 0.00 | 0.36 | 0.36 | 54 | 1007.8 |
| 20260507141721 | 15 | 102 | 1.6 | 3.2 | 0.00 | 0.36 | 0.36 | 55 | 1008.1 |
| 20260507141219 | 15 | 290 | 4.8 | 6.4 | 0.00 | 0.36 | 0.36 | 55 | 1008.1 |
| 20260507140714 | 15 | 139 | 0.0 | 0.0 | 0.00 | 0.36 | 0.36 | 56 | 1008.1 |
| 20260507140212 | 15 | 244 | 3.2 | 4.8 | 0.00 | 0.36 | 0.36 | 56 | 1008.1 |
| 20260507135709 | 15 | 338 | 3.2 | 4.8 | 0.00 | 0.36 | 0.36 | 55 | 1008.1 |
| 20260507135206 | 14 | 119 | 3.2 | 3.2 | 0.00 | 0.36 | 0.36 | 55 | 1008.1 |
| 20260507134702 | 14 | 317 | 1.6 | 3.2 | 0.00 | 0.36 | 0.36 | 57 | 1007.8 |
| 20260507134159 | 13 | 97 | 3.2 | 3.2 | 0.00 | 0.36 | 0.36 | 62 | 1008.1 |
| 20260507133654 | 13 | 67 | 0.0 | 1.6 | 0.00 | 0.36 | 0.36 | 64 | 1008.1 |
| 20260507133152 | 13 | 177 | 6.4 | 9.7 | 0.00 | 0.36 | 0.36 | 64 | 1008.1 |
| 20260507132649 | 13 | 132 | 3.2 | 4.8 | 0.00 | 0.36 | 0.36 | 66 | 1008.1 |
| 20260507132145 | 13 | 7 | 4.8 | 4.8 | 0.00 | 0.36 | 0.36 | 66 | 1008.1 |
| 20260507131643 | 13 | 295 | 3.2 | 4.8 | 0.00 | 0.36 | 0.36 | 68 | 1008.4 |
| 20260507131140 | 13 | 358 | 4.8 | 6.4 | 0.00 | 0.36 | 0.36 | 70 | 1008.4 |
| 20260507130636 | 12 | 118 | 0.0 | 0.0 | 0.00 | 0.36 | 0.36 | 73 | 1008.1 |
| 20260507130134 | 12 | 110 | 1.6 | 3.2 | 0.00 | 0.36 | 0.36 | 75 | 1008.1 |
| 20260507125633 | 12 | 156 | 1.6 | 1.6 | 0.00 | 0.36 | 0.36 | 77 | 1008.4 |
| 20260507125130 | 12 | 19 | 4.8 | 6.4 | 0.00 | 0.36 | 0.36 | 78 | 1008.8 |
| 20260507124626 | 11 | 182 | 4.8 | 6.4 | 0.00 | 0.36 | 0.36 | 78 | 1008.8 |
| 20260507124124 | 12 | 75 | 1.6 | 1.6 | 0.00 | 0.36 | 0.36 | 80 | 1008.4 |
| 20260507123622 | 11 | 87 | 0.0 | 1.6 | 0.00 | 0.36 | 0.36 | 81 | 1008.4 |
| 20260507123119 | 11 | 48 | 0.0 | 1.6 | 0.00 | 0.36 | 0.36 | 84 | 1008.4 |
| 20260507122614 | 10 | 301 | 3.2 | 3.2 | 0.00 | 0.36 | 0.36 | 84 | 1008.4 |
| 20260507122110 | 10 | 144 | 4.8 | 12.9 | 0.13 | 0.36 | 0.36 | 86 | 1008.4 |
| 20260507121606 | 10 | 7 | 0.0 | 0.0 | 0.13 | 0.36 | 0.36 | 87 | 1008.4 |
| 20260507121102 | 10 | 93 | 0.0 | 0.0 | 0.00 | 0.33 | 0.33 | 89 | 1008.4 |
| 20260507120558 | 10 | 132 | 3.2 | 6.4 | 0.00 | 0.33 | 0.33 | 90 | 1008.1 |
| 20260507120055 | 10 | 141 | 0.0 | 0.0 | 0.00 | 0.33 | 0.33 | 91 | 1008.1 |
| 20260507115551 | 10 | 141 | 0.0 | 0.0 | 0.00 | 0.33 | 0.33 | 92 | 1008.1 |
| 20260507115047 | 10 | 139 | 0.0 | 0.0 | 0.00 | 0.33 | 0.33 | 92 | 1008.4 |
| 20260507114543 | 10 | 160 | 0.0 | 0.0 | 0.00 | 0.33 | 0.33 | 93 | 1008.8 |
| 20260507114041 | 9 | 283 | 3.2 | 4.8 | 0.00 | 0.33 | 0.33 | 93 | 1008.4 |
| 20260507113538 | 9 | 169 | 0.0 | 0.0 | 0.00 | 0.33 | 0.33 | 93 | 1008.4 |
| 20260507113035 | 9 | 139 | 0.0 | 0.0 | 0.00 | 0.33 | 0.33 | 94 | 1008.4 |
| 20260507112533 | 9 | 272 | 0.0 | 0.0 | 0.00 | 0.33 | 0.33 | 94 | 1008.1 |
| 20260507112029 | 9 | 159 | 0.0 | 0.0 | 0.00 | 0.33 | 0.33 | 94 | 1008.1 |
| 20260507111526 | 9 | 127 | 0.0 | 0.0 | 0.00 | 0.33 | 0.33 | 94 | 1008.1 |
| 20260507111023 | 9 | 327 | 1.6 | 3.2 | 0.00 | 0.33 | 0.33 | 94 | 1007.8 |
| 20260507110519 | 10 | 229 | 0.0 | 0.0 | 0.00 | 0.33 | 0.33 | 93 | 1008.1 |
| 20260507110016 | 10 | 118 | 0.0 | 0.0 | 0.00 | 0.33 | 0.33 | 93 | 1008.1 |
| 20260507105513 | 9 | 111 | 0.0 | 0.0 | 0.00 | 0.33 | 0.33 | 93 | 1008.1 |
| 20260507105009 | 9 | 340 | 0.0 | 1.6 | 0.00 | 0.33 | 0.33 | 93 | 1008.1 |
| 20260507104507 | 9 | 7 | 0.0 | 0.0 | 0.00 | 0.33 | 0.33 | 93 | 1008.4 |
| 20260507104003 | 10 | 74 | 0.0 | 0.0 | 0.00 | 0.33 | 0.33 | 93 | 1008.1 |
| 20260507103500 | 9 | 85 | 0.0 | 0.0 | 0.00 | 0.33 | 0.33 | 93 | 1008.1 |
| 20260507102955 | 9 | 174 | 1.6 | 1.6 | 0.00 | 0.33 | 0.33 | 93 | 1008.4 |
| 20260507102452 | 9 | 151 | 0.0 | 0.0 | 0.00 | 0.33 | 0.33 | 94 | 1007.8 |
| 20260507101948 | 9 | 139 | 0.0 | 0.0 | 0.00 | 0.33 | 0.33 | 94 | 1007.8 |
| 20260507101443 | 9 | 145 | 0.0 | 0.0 | 0.00 | 0.33 | 0.33 | 94 | 1007.8 |
| 20260507100940 | 9 | 28 | 0.0 | 0.0 | 0.00 | 0.33 | 0.33 | 94 | 1007.8 |
| 20260507100438 | 9 | 151 | 0.0 | 0.0 | 0.18 | 0.33 | 0.33 | 94 | 1007.8 |
| 20260507095936 | 9 | 168 | 0.0 | 0.0 | 0.18 | 0.33 | 0.33 | 94 | 1007.8 |
| 20260507095433 | 9 | 192 | 0.0 | 0.0 | 0.00 | 0.30 | 0.30 | 94 | 1007.8 |
| 20260507094930 | 9 | 160 | 0.0 | 0.0 | 0.13 | 0.30 | 0.30 | 94 | 1007.8 |
| 20260507094426 | 9 | 87 | 0.0 | 0.0 | 0.30 | 0.30 | 0.30 | 94 | 1007.4 |
| 20260507093923 | 10 | 161 | 0.0 | 0.0 | 0.18 | 0.28 | 0.28 | 94 | 1007.8 |
| 20260507093421 | 10 | 191 | 0.0 | 0.0 | 0.13 | 0.25 | 0.25 | 94 | 1007.8 |
| 20260507092920 | 10 | 44 | 0.0 | 0.0 | 0.13 | 0.25 | 0.25 | 94 | 1007.4 |
| 20260507092415 | 10 | 82 | 0.0 | 0.0 | 0.18 | 0.23 | 0.23 | 93 | 1007.4 |
| 20260507091912 | 10 | 136 | 0.0 | 1.6 | 0.48 | 0.23 | 0.23 | 93 | 1007.4 |
| 20260507091408 | 10 | 338 | 1.6 | 3.2 | 0.43 | 0.20 | 0.20 | 93 | 1007.4 |
| 20260507090904 | 10 | 144 | 0.0 | 0.0 | 0.30 | 0.15 | 0.15 | 93 | 1007.8 |
| 20260507090400 | 10 | 358 | 1.6 | 1.6 | 0.18 | 0.13 | 0.13 | 92 | 1007.8 |
| 20260507085857 | 10 | 158 | 1.6 | 3.2 | 0.13 | 0.10 | 0.10 | 92 | 1007.8 |
| 20260507085354 | 10 | 133 | 0.0 | 0.0 | 0.00 | 0.08 | 0.08 | 92 | 1007.8 |
| 20260507084852 | 10 | 303 | 3.2 | 3.2 | 0.00 | 0.08 | 0.08 | 92 | 1007.8 |
| 20260507084348 | 10 | 190 | 0.0 | 0.0 | 0.00 | 0.08 | 0.08 | 92 | 1007.8 |
| 20260507083845 | 10 | 140 | 0.0 | 0.0 | 0.00 | 0.08 | 0.08 | 92 | 1007.4 |
| 20260507083342 | 11 | 131 | 0.0 | 0.0 | 0.00 | 0.08 | 0.08 | 91 | 1007.4 |
| 20260507082838 | 11 | 279 | 0.0 | 1.6 | 0.18 | 0.08 | 0.08 | 91 | 1007.4 |
| 20260507082333 | 11 | 146 | 0.0 | 0.0 | 0.18 | 0.08 | 0.08 | 90 | 1007.4 |
| 20260507081831 | 11 | 32 | 1.6 | 1.6 | 0.18 | 0.05 | 0.05 | 90 | 1007.1 |
| 20260507081327 | 11 | 123 | 0.0 | 0.0 | 0.18 | 0.05 | 0.05 | 89 | 1007.4 |
| 20260507080824 | 11 | 93 | 0.0 | 0.0 | 0.00 | 0.03 | 0.03 | 89 | 1007.4 |
| 20260507080320 | 11 | 151 | 0.0 | 1.6 | 0.00 | 0.03 | 0.03 | 89 | 1007.8 |
| 20260507075815 | 11 | 97 | 3.2 | 3.2 | 0.00 | 0.03 | 0.03 | 90 | 1007.4 |
| 20260507075312 | 11 | 307 | 3.2 | 4.8 | 0.00 | 0.03 | 0.03 | 90 | 1007.1 |
| 20260507074809 | 12 | 124 | 1.6 | 3.2 | 0.00 | 0.03 | 0.03 | 90 | 1006.7 |
| 20260507074306 | 12 | 124 | 1.6 | 1.6 | 0.13 | 0.03 | 0.03 | 89 | 1007.1 |
| 20260507073803 | 12 | 154 | 0.0 | 1.6 | 0.13 | 0.03 | 0.03 | 88 | 1007.1 |
| 20260507073300 | 12 | 188 | 3.2 | 4.8 | 0.00 | 0.00 | 0.00 | 88 | 1007.1 |
| 20260507072757 | 12 | 215 | 3.2 | 4.8 | 0.00 | 0.00 | 0.00 | 88 | 1007.1 |
| 20260507072254 | 12 | 122 | 1.6 | 1.6 | 0.00 | 0.00 | 0.00 | 88 | 1006.1 |
| 20260507071752 | 12 | 326 | 1.6 | 3.2 | 0.00 | 0.00 | 0.00 | 88 | 1006.1 |
| 20260507071248 | 12 | 111 | 1.6 | 1.6 | 0.00 | 0.00 | 0.00 | 88 | 1006.4 |
| 20260507070745 | 12 | 73 | 1.6 | 3.2 | 0.00 | 0.00 | 0.00 | 88 | 1006.7 |
| 20260507070242 | 13 | 322 | 6.4 | 12.9 | 0.00 | 0.00 | 0.00 | 88 | 1006.7 |
| 20260507065738 | 13 | 336 | 3.2 | 3.2 | 0.00 | 0.00 | 0.00 | 87 | 1006.1 |
| 20260507065235 | 13 | 358 | 1.6 | 1.6 | 0.00 | 0.00 | 0.00 | 87 | 1006.1 |
| 20260507064733 | 13 | 103 | 1.6 | 1.6 | 0.00 | 0.00 | 0.00 | 87 | 1006.7 |
| 20260507064232 | 13 | 114 | 0.0 | 1.6 | 0.00 | 0.00 | 0.00 | 86 | 1006.4 |
| 20260507063728 | 13 | 12 | 0.0 | 1.6 | 0.00 | 0.00 | 0.00 | 86 | 1006.7 |
| 20260507063225 | 13 | 285 | 4.8 | 4.8 | 0.00 | 0.00 | 0.00 | 87 | 1006.4 |
| 20260507062722 | 13 | 72 | 3.2 | 3.2 | 0.00 | 0.00 | 0.00 | 86 | 1006.7 |
| 20260507062220 | 13 | 157 | 3.2 | 3.2 | 0.00 | 0.00 | 0.00 | 86 | 1006.7 |
| 20260507061717 | 13 | 61 | 3.2 | 4.8 | 0.00 | 0.00 | 0.00 | 86 | 1006.4 |
| 20260507061215 | 13 | 127 | 0.0 | 1.6 | 0.00 | 0.00 | 0.00 | 87 | 1006.4 |
| 20260507060713 | 13 | 16 | 1.6 | 1.6 | 0.00 | 0.00 | 0.00 | 87 | 1006.1 |
| 20260507060209 | 13 | 346 | 3.2 | 4.8 | 0.00 | 0.00 | 0.00 | 87 | 1006.7 |
| 20260507055705 | 13 | 37 | 3.2 | 6.4 | 0.00 | 0.00 | 0.00 | 87 | 1006.4 |
| 20260507055201 | 13 | 345 | 4.8 | 6.4 | 0.00 | 0.00 | 0.00 | 88 | 1006.7 |
| 20260507054657 | 13 | 148 | 3.2 | 4.8 | 0.00 | 0.00 | 0.00 | 89 | 1006.4 |
| 20260507054154 | 14 | 132 | 0.0 | 1.6 | 0.00 | 0.00 | 0.00 | 90 | 1006.7 |
| 20260507053652 | 14 | 107 | 0.0 | 0.0 | 0.00 | 0.00 | 0.00 | 91 | 1006.7 |
| 20260507053150 | 14 | 146 | 0.0 | 1.6 | 0.00 | 0.00 | 0.00 | 91 | 1006.7 |
| 20260507052648 | 15 | 126 | 0.0 | 0.0 | 0.00 | 0.00 | 0.00 | 90 | 1006.7 |
| 20260507052144 | 15 | 299 | 0.0 | 3.2 | 0.00 | 0.00 | 0.00 | 90 | 1006.7 |
| 20260507051642 | 15 | 176 | 0.0 | 0.0 | 0.00 | 0.00 | 0.00 | 90 | 1006.4 |
| 20260507051138 | 15 | 190 | 0.0 | 0.0 | 0.00 | 0.00 | 0.00 | 90 | 1006.4 |
| 20260507050635 | 15 | 11 | 0.0 | 0.0 | 0.00 | 0.00 | 0.00 | 90 | 1006.4 |
| 20260507050132 | 15 | 272 | 3.2 | 4.8 | 0.00 | 0.00 | 0.00 | 90 | 1006.4 |
| 20260507045629 | 15 | 117 | 0.0 | 1.6 | 0.00 | 0.00 | 0.00 | 91 | 1006.4 |
| 20260507045126 | 15 | 140 | 0.0 | 0.0 | 0.00 | 0.00 | 0.00 | 92 | 1006.4 |
| 20260507044622 | 15 | 99 | 4.8 | 6.4 | 0.00 | 0.00 | 0.00 | 93 | 1006.7 |
| 20260507044119 | 15 | 80 | 0.0 | 1.6 | 0.00 | 0.00 | 0.00 | 94 | 1006.4 |
| 20260507043615 | 15 | 172 | 3.2 | 4.8 | 0.00 | 0.00 | 0.00 | 94 | 1006.1 |
| 20260507043113 | 15 | 163 | 0.0 | 0.0 | 0.00 | 0.00 | 0.00 | 95 | 1006.4 |
| 20260507042609 | 15 | 144 | 0.0 | 0.0 | 0.00 | 0.00 | 0.00 | 95 | 1006.4 |
| 20260507042104 | 15 | 144 | 0.0 | 0.0 | 0.00 | 0.00 | 0.00 | 95 | 1006.4 |
| 20260507041601 | 15 | 266 | 6.4 | 9.7 | 0.00 | 0.00 | 0.00 | 96 | 1006.4 |
| 20260507041058 | 15 | 127 | 0.0 | 0.0 | 0.00 | 0.00 | 0.00 | 96 | 1006.4 |
| 20260507040555 | 15 | 229 | 0.0 | 0.0 | 0.00 | 0.00 | 0.00 | 96 | 1006.7 |
| 20260507040051 | 15 | 175 | 1.6 | 4.8 | 0.00 | 0.18 | 0.18 | 96 | 1006.7 |
| 20260507035547 | 15 | 278 | 8.0 | 11.3 | 0.00 | 0.18 | 0.18 | 95 | 1006.7 |
| 20260507035043 | 15 | 274 | 1.6 | 3.2 | 0.00 | 0.18 | 0.18 | 95 | 1006.7 |
| 20260507034540 | 15 | 265 | 3.2 | 3.2 | 0.00 | 0.18 | 0.18 | 95 | 1006.4 |
| 20260507034038 | 15 | 159 | 0.0 | 0.0 | 0.00 | 0.18 | 0.18 | 95 | 1006.4 |
| 20260507033536 | 15 | 140 | 0.0 | 0.0 | 0.00 | 0.18 | 0.18 | 94 | 1006.1 |
| 20260507033033 | 15 | 146 | 0.0 | 0.0 | 0.00 | 0.18 | 0.18 | 94 | 1006.4 |
| 20260507032530 | 15 | 170 | 0.0 | 0.0 | 0.00 | 0.18 | 0.18 | 94 | 1006.4 |
| 20260507032026 | 15 | 148 | 0.0 | 0.0 | 0.00 | 0.18 | 0.18 | 94 | 1006.4 |
| 20260507031522 | 15 | 199 | 3.2 | 3.2 | 0.00 | 0.18 | 0.18 | 94 | 1006.1 |
| 20260507031020 | 15 | 220 | 6.4 | 11.3 | 0.00 | 0.18 | 0.18 | 94 | 1006.1 |
| 20260507030516 | 15 | 189 | 3.2 | 4.8 | 0.00 | 0.18 | 0.18 | 94 | 1006.1 |
| 20260507030014 | 15 | 207 | 1.6 | 3.2 | 0.00 | 0.18 | 0.18 | 94 | 1006.1 |
| 20260507025511 | 15 | 152 | 4.8 | 6.4 | 0.00 | 0.18 | 0.18 | 94 | 1005.7 |
| 20260507025009 | 15 | 219 | 3.2 | 4.8 | 0.00 | 0.18 | 0.18 | 94 | 1005.7 |
| 20260507024506 | 15 | 208 | 3.2 | 3.2 | 0.00 | 0.18 | 0.18 | 94 | 1006.1 |
| 20260507024002 | 15 | 211 | 3.2 | 4.8 | 0.00 | 0.18 | 0.18 | 94 | 1006.1 |
| 20260507023458 | 15 | 216 | 3.2 | 4.8 | 0.00 | 0.18 | 0.18 | 94 | 1006.1 |
| 20260507022956 | 15 | 200 | 3.2 | 3.2 | 0.00 | 0.18 | 0.18 | 94 | 1006.1 |
| 20260507022453 | 15 | 172 | 3.2 | 3.2 | 0.00 | 0.18 | 0.18 | 94 | 1006.4 |
| 20260507021948 | 15 | 198 | 4.8 | 4.8 | 0.00 | 0.18 | 0.18 | 94 | 1006.1 |
| 20260507021444 | 15 | 174 | 8.0 | 9.7 | 0.00 | 0.18 | 0.18 | 94 | 1006.1 |
| 20260507020941 | 15 | 150 | 4.8 | 4.8 | 0.00 | 0.18 | 0.18 | 94 | 1006.1 |
| 20260507020438 | 15 | 133 | 3.2 | 4.8 | 0.00 | 0.18 | 0.18 | 94 | 1006.1 |
| 20260507015935 | 15 | 142 | 4.8 | 4.8 | 0.00 | 0.18 | 0.18 | 94 | 1005.7 |
| 20260507015434 | 15 | 198 | 6.4 | 6.4 | 0.00 | 0.18 | 0.18 | 94 | 1006.1 |
| 20260507014930 | 15 | 217 | 11.3 | 12.9 | 0.00 | 0.18 | 0.18 | 95 | 1006.1 |
| 20260507014427 | 15 | 206 | 6.4 | 11.3 | 0.00 | 0.18 | 0.18 | 95 | 1006.1 |
| 20260507013923 | 15 | 158 | 1.6 | 3.2 | 0.00 | 0.18 | 0.18 | 95 | 1006.4 |
| 20260507013420 | 15 | 196 | 4.8 | 6.4 | 0.00 | 0.18 | 0.18 | 95 | 1006.1 |
| 20260507012918 | 15 | 176 | 8.0 | 9.7 | 0.00 | 0.18 | 0.18 | 95 | 1006.1 |
| 20260507012414 | 15 | 94 | 4.8 | 6.4 | 0.00 | 0.18 | 0.18 | 95 | 1006.4 |
| 20260507011911 | 15 | 143 | 8.0 | 11.3 | 0.00 | 0.18 | 0.18 | 95 | 1006.4 |
| 20260507011408 | 15 | 178 | 6.4 | 9.7 | 0.00 | 0.18 | 0.18 | 95 | 1006.4 |
| 20260507010908 | 15 | 238 | 4.8 | 9.7 | 0.00 | 0.18 | 0.18 | 95 | 1006.4 |
| 20260507010403 | 14 | 190 | 9.7 | 11.3 | 0.00 | 0.18 | 0.18 | 95 | 1006.7 |
| 20260507005901 | 14 | 212 | 4.8 | 6.4 | 0.00 | 0.18 | 0.18 | 95 | 1006.7 |
| 20260507005357 | 14 | 139 | 6.4 | 9.7 | 0.00 | 0.18 | 0.18 | 95 | 1006.7 |
| 20260507004854 | 14 | 211 | 8.0 | 9.7 | 0.00 | 0.18 | 0.18 | 95 | 1006.7 |
| 20260507004351 | 14 | 175 | 1.6 | 3.2 | 0.00 | 0.18 | 0.18 | 95 | 1006.4 |
| 20260507003850 | 14 | 161 | 9.7 | 14.5 | 0.00 | 0.18 | 0.18 | 95 | 1006.4 |
| 20260507003344 | 14 | 147 | 3.2 | 4.8 | 0.00 | 0.18 | 0.18 | 96 | 1006.4 |
| 20260507002839 | 14 | 159 | 4.8 | 4.8 | 0.00 | 0.18 | 0.18 | 96 | 1006.7 |
| 20260507002335 | 14 | 180 | 6.4 | 6.4 | 0.00 | 0.18 | 0.18 | 96 | 1006.7 |
| 20260507001833 | 14 | 178 | 11.3 | 14.5 | 0.00 | 0.18 | 0.18 | 96 | 1006.4 |
| 20260507001329 | 14 | 180 | 4.8 | 6.4 | 0.00 | 0.18 | 0.18 | 96 | 1006.4 |
| 20260507000826 | 14 | 219 | 3.2 | 4.8 | 0.00 | 0.18 | 0.18 | 96 | 1006.1 |
| 20260507000321 | 14 | 124 | 8.0 | 12.9 | 0.00 | 0.18 | 0.18 | 96 | 1006.1 |
| 20260506235818 | 14 | 223 | 6.4 | 11.3 | 0.18 | 0.18 | 0.18 | 96 | 1006.1 |
| 20260506235314 | 15 | 224 | 4.8 | 9.7 | 0.18 | 0.18 | 0.18 | 95 | 1006.1 |
| 20260506234811 | 15 | 211 | 4.8 | 4.8 | 0.00 | 0.15 | 0.15 | 95 | 1006.4 |
| 20260506234309 | 15 | 164 | 11.3 | 14.5 | 0.00 | 0.15 | 0.15 | 95 | 1006.4 |
| 20260506233806 | 15 | 167 | 6.4 | 9.7 | 0.13 | 0.15 | 0.15 | 95 | 1006.1 |
| 20260506233302 | 15 | 191 | 8.0 | 16.1 | 0.13 | 0.15 | 0.15 | 95 | 1006.1 |
| 20260506232759 | 15 | 199 | 4.8 | 4.8 | 0.18 | 0.13 | 0.13 | 95 | 1006.1 |
| 20260506232254 | 15 | 195 | 4.8 | 4.8 | 0.18 | 0.13 | 0.13 | 95 | 1006.1 |
| 20260506231751 | 15 | 172 | 12.9 | 14.5 | 0.00 | 0.10 | 0.10 | 94 | 1006.1 |
| 20260506231250 | 15 | 190 | 12.9 | 16.1 | 0.00 | 0.10 | 0.10 | 94 | 1006.1 |
| 20260506230746 | 15 | 154 | 3.2 | 3.2 | 0.00 | 0.10 | 0.10 | 93 | 1006.1 |
| 20260506230243 | 15 | 227 | 8.0 | 9.7 | 0.00 | 0.10 | 0.10 | 93 | 1006.1 |
| 20260506225739 | 15 | 149 | 4.8 | 6.4 | 0.00 | 0.10 | 0.10 | 93 | 1006.1 |
| 20260506225237 | 15 | 217 | 8.0 | 9.7 | 0.00 | 0.10 | 0.10 | 93 | 1006.4 |
| 20260506224733 | 15 | 167 | 8.0 | 11.3 | 0.00 | 0.10 | 0.10 | 94 | 1006.1 |
| 20260506224230 | 15 | 150 | 6.4 | 9.7 | 0.00 | 0.10 | 0.10 | 94 | 1006.4 |
| 20260506223726 | 15 | 197 | 6.4 | 9.7 | 0.00 | 0.10 | 0.10 | 94 | 1006.1 |
| 20260506223222 | 15 | 233 | 8.0 | 12.9 | 0.00 | 0.10 | 0.10 | 94 | 1006.4 |
| 20260506222719 | 15 | 165 | 3.2 | 4.8 | 0.00 | 0.10 | 0.10 | 94 | 1006.4 |
| 20260506222214 | 15 | 166 | 6.4 | 9.7 | 0.00 | 0.10 | 0.10 | 94 | 1006.7 |
| 20260506221713 | 15 | 171 | 9.7 | 12.9 | 0.00 | 0.10 | 0.10 | 95 | 1006.7 |
| 20260506221211 | 15 | 199 | 6.4 | 6.4 | 0.00 | 0.10 | 0.10 | 94 | 1006.7 |
| 20260506220708 | 15 | 198 | 8.0 | 9.7 | 0.00 | 0.10 | 0.10 | 94 | 1006.7 |
| 20260506220202 | 16 | 197 | 8.0 | 12.9 | 0.00 | 0.10 | 0.10 | 94 | 1006.7 |
| 20260506215659 | 16 | 177 | 3.2 | 3.2 | 0.13 | 0.10 | 0.10 | 93 | 1006.7 |
| 20260506215154 | 16 | 189 | 6.4 | 9.7 | 0.00 | 0.08 | 0.08 | 93 | 1006.7 |
| 20260506214652 | 16 | 209 | 4.8 | 4.8 | 0.00 | 0.08 | 0.08 | 92 | 1006.7 |
| 20260506214149 | 16 | 149 | 8.0 | 12.9 | 0.18 | 0.08 | 0.08 | 91 | 1006.7 |
| 20260506213647 | 16 | 231 | 6.4 | 9.7 | 0.18 | 0.08 | 0.08 | 89 | 1007.1 |
| 20260506213144 | 16 | 189 | 4.8 | 6.4 | 0.00 | 0.05 | 0.05 | 88 | 1007.1 |
| 20260506212642 | 16 | 148 | 3.2 | 6.4 | 0.00 | 0.05 | 0.05 | 88 | 1006.7 |
| 20260506212136 | 16 | 148 | 9.7 | 14.5 | 0.00 | 0.05 | 0.05 | 87 | 1007.1 |
| 20260506211632 | 16 | 159 | 3.2 | 3.2 | 0.00 | 0.05 | 0.05 | 87 | 1006.7 |
| 20260506211129 | 16 | 200 | 9.7 | 12.9 | 0.00 | 0.05 | 0.05 | 87 | 1007.1 |
| 20260506210626 | 16 | 169 | 6.4 | 6.4 | 0.00 | 0.05 | 0.05 | 86 | 1007.1 |
| 20260506210122 | 16 | 222 | 11.3 | 16.1 | 0.00 | 0.05 | 0.05 | 87 | 1007.1 |
| 20260506205620 | 16 | 160 | 8.0 | 12.9 | 0.00 | 0.05 | 0.05 | 87 | 1007.1 |
| 20260506205114 | 16 | 223 | 11.3 | 16.1 | 0.00 | 0.05 | 0.05 | 86 | 1007.1 |
| 20260506204613 | 16 | 188 | 14.5 | 16.1 | 0.00 | 0.05 | 0.05 | 86 | 1007.4 |
| 20260506204109 | 16 | 218 | 6.4 | 9.7 | 0.00 | 0.05 | 0.05 | 87 | 1007.4 |
| 20260506203608 | 17 | 182 | 6.4 | 6.4 | 0.00 | 0.05 | 0.05 | 85 | 1007.4 |
| 20260506203104 | 17 | 165 | 11.3 | 14.5 | 0.00 | 0.05 | 0.05 | 83 | 1007.1 |
| 20260506202602 | 17 | 176 | 14.5 | 24.1 | 0.00 | 0.05 | 0.05 | 83 | 1007.1 |
| 20260506202058 | 17 | 241 | 3.2 | 6.4 | 0.00 | 0.05 | 0.05 | 82 | 1007.4 |